createdAt,value
2017-03-10T00:03:13.783Z,9.02
2017-03-10T00:04:13.829Z,8.98
2017-03-10T00:05:15.522Z,9.03
2017-03-10T00:07:14.252Z,9.11
2017-03-10T00:08:48.155Z,9.00
2017-03-10T00:11:23.726Z,8.91
2017-03-10T00:13:26.653Z,8.95
2017-03-10T00:14:31.890Z,9.05
2017-03-10T00:15:21.673Z,9.04
2017-03-10T00:16:15.914Z,8.91
2017-03-10T00:21:14.712Z,8.93
2017-03-10T00:22:14.865Z,8.95
2017-03-10T00:23:24.689Z,8.80
2017-03-10T00:34:28.375Z,8.90
2017-03-10T00:35:38.560Z,8.94
2017-03-10T00:36:21.838Z,8.97
2017-03-10T00:40:21.079Z,8.86
2017-03-10T00:41:26.418Z,8.81
2017-03-10T00:42:13.531Z,8.92
2017-03-10T00:43:16.507Z,8.86
2017-03-10T00:44:23.428Z,8.91
2017-03-10T00:45:28.066Z,8.95
2017-03-10T00:46:21.157Z,8.84
2017-03-10T00:47:23.436Z,8.79
2017-03-10T00:48:15.016Z,8.73
2017-03-10T00:49:23.766Z,8.76
2017-03-10T00:50:22.844Z,8.78
2017-03-10T00:51:16.591Z,8.75
2017-03-10T00:52:23.786Z,8.79
2017-03-10T00:53:22.731Z,8.78
2017-03-10T00:54:22.878Z,8.78
2017-03-10T00:55:26.629Z,8.76
2017-03-10T00:56:23.331Z,8.78
2017-03-10T00:57:22.727Z,8.93
2017-03-10T00:58:23.672Z,9.01
2017-03-10T00:59:22.860Z,9.08
2017-03-10T01:00:23.129Z,9.01
2017-03-10T01:01:23.243Z,8.86
2017-03-10T01:02:17.365Z,8.91
2017-03-10T01:03:26.010Z,8.83
2017-03-10T01:04:28.176Z,8.77
2017-03-10T01:05:22.564Z,8.74
2017-03-10T01:06:22.248Z,8.76
2017-03-10T01:07:23.921Z,8.69
2017-03-10T01:08:23.130Z,8.60
2017-03-10T01:09:28.340Z,8.63
2017-03-10T01:10:21.174Z,8.69
2017-03-10T01:11:23.403Z,8.61
2017-03-10T01:12:23.087Z,8.60
2017-03-10T01:13:13.031Z,8.56
2017-03-10T01:14:21.625Z,8.63
2017-03-10T01:15:22.830Z,8.60
2017-03-10T01:16:23.318Z,8.68
2017-03-10T01:17:23.917Z,8.67
2017-03-10T01:18:16.787Z,8.75
2017-03-10T01:19:17.219Z,8.61
2017-03-10T01:20:23.363Z,8.76
2017-03-10T01:21:23.540Z,8.67
2017-03-10T01:22:28.479Z,8.64
2017-03-10T01:23:23.458Z,8.68
2017-03-10T01:24:23.732Z,8.71
2017-03-10T01:25:17.057Z,8.67
2017-03-10T01:26:28.926Z,8.47
2017-03-10T01:27:24.092Z,8.53
2017-03-10T01:28:14.715Z,8.52
2017-03-10T01:29:23.484Z,8.56
2017-03-10T01:30:23.100Z,8.62
2017-03-10T01:31:23.296Z,8.69
2017-03-10T01:32:24.925Z,8.59
2017-03-10T01:33:21.303Z,8.56
2017-03-10T01:34:16.450Z,8.56
2017-03-10T01:35:23.213Z,8.51
2017-03-10T01:36:24.380Z,8.56
2017-03-10T01:37:23.155Z,8.66
2017-03-10T01:38:19.724Z,8.75
2017-03-10T01:39:23.112Z,8.61
2017-03-10T01:40:16.255Z,8.50
2017-03-10T01:41:24.646Z,8.50
2017-03-10T01:42:22.796Z,8.51
2017-03-10T01:43:16.799Z,8.43
2017-03-10T01:44:21.792Z,8.42
2017-03-10T01:45:23.055Z,8.44
2017-03-10T01:46:22.957Z,8.47
2017-03-10T01:47:17.137Z,8.48
2017-03-10T01:48:23.601Z,8.50
2017-03-10T01:49:23.455Z,8.47
2017-03-10T01:50:22.607Z,8.47
2017-03-10T01:51:23.319Z,8.44
2017-03-10T01:52:22.543Z,8.26
2017-03-10T01:53:16.728Z,8.32
2017-03-10T01:54:16.609Z,8.34
2017-03-10T01:55:13.341Z,8.36
2017-03-10T01:56:16.868Z,8.37
2017-03-10T01:57:23.332Z,8.36
2017-03-10T01:58:23.411Z,8.32
2017-03-10T01:59:16.757Z,8.24
2017-03-10T02:00:16.734Z,8.34
2017-03-10T02:01:16.888Z,8.30
2017-03-10T02:02:14.378Z,8.38
2017-03-10T02:03:23.538Z,8.32
2017-03-10T02:04:16.765Z,8.37
2017-03-10T02:05:13.638Z,8.36
2017-03-10T02:06:22.937Z,8.23
2017-03-10T02:07:17.033Z,8.28
2017-03-10T02:08:16.954Z,8.24
2017-03-10T02:09:23.655Z,8.32
2017-03-10T02:10:22.791Z,8.32
2017-03-10T02:11:23.663Z,8.49
2017-03-10T02:12:22.029Z,8.58
2017-03-10T02:13:16.862Z,8.49
2017-03-10T02:14:13.671Z,8.56
2017-03-10T02:15:17.232Z,8.55
2017-03-10T02:16:13.793Z,8.45
2017-03-10T02:17:17.573Z,8.49
2017-03-10T02:18:23.735Z,8.49
2017-03-10T02:19:23.199Z,8.46
2017-03-10T02:20:16.720Z,8.45
2017-03-10T02:21:13.231Z,8.43
2017-03-10T02:22:24.091Z,8.42
2017-03-10T02:23:17.245Z,8.36
2017-03-10T02:24:23.999Z,8.39
2017-03-10T02:25:17.077Z,8.42
2017-03-10T02:26:23.637Z,8.38
2017-03-10T02:27:12.933Z,8.30
2017-03-10T02:28:14.107Z,8.43
2017-03-10T02:29:21.071Z,8.37
2017-03-10T02:30:23.744Z,8.45
2017-03-10T02:31:22.800Z,8.36
2017-03-10T02:32:20.205Z,8.42
2017-03-10T02:33:16.156Z,8.34
2017-03-10T02:34:15.479Z,8.36
2017-03-10T02:35:16.743Z,8.14
2017-03-10T02:36:28.473Z,8.18
2017-03-10T02:37:23.014Z,8.26
2017-03-10T02:38:23.068Z,8.27
2017-03-10T02:39:23.168Z,8.32
2017-03-10T02:40:16.730Z,8.31
2017-03-10T02:41:17.009Z,8.29
2017-03-10T02:42:23.554Z,8.25
2017-03-10T02:43:23.419Z,8.32
2017-03-10T02:44:23.712Z,8.29
2017-03-10T02:45:15.122Z,8.07
2017-03-10T02:46:17.196Z,8.02
2017-03-10T02:47:17.182Z,8.21
2017-03-10T02:48:23.391Z,8.33
2017-03-10T02:49:14.410Z,8.28
2017-03-10T02:50:23.172Z,8.27
2017-03-10T02:51:17.525Z,8.25
2017-03-10T02:52:16.961Z,8.32
2017-03-10T02:53:17.122Z,8.17
2017-03-10T02:54:21.807Z,8.07
2017-03-10T02:55:28.415Z,8.00
2017-03-10T02:56:13.853Z,8.13
2017-03-10T02:57:23.164Z,8.11
2017-03-10T02:58:27.697Z,8.18
2017-03-10T02:59:12.581Z,8.12
2017-03-10T03:00:24.361Z,8.04
2017-03-10T03:01:13.494Z,8.06
2017-03-10T03:02:17.279Z,8.27
2017-03-10T03:03:21.165Z,8.17
2017-03-10T03:04:23.521Z,8.08
2017-03-10T03:05:16.724Z,8.10
2017-03-10T03:06:23.734Z,8.02
2017-03-10T03:07:16.846Z,8.08
2017-03-10T03:08:13.614Z,8.00
2017-03-10T03:09:13.345Z,8.13
2017-03-10T03:10:21.633Z,8.23
2017-03-10T03:11:23.765Z,8.20
2017-03-10T03:12:16.943Z,8.15
2017-03-10T03:13:17.276Z,8.07
2017-03-10T03:14:28.258Z,8.02
2017-03-10T03:15:13.747Z,8.11
2017-03-10T03:16:23.797Z,8.10
2017-03-10T03:17:16.781Z,8.19
2017-03-10T03:18:23.281Z,8.27
2017-03-10T03:19:17.379Z,8.19
2017-03-10T03:20:28.366Z,8.01
2017-03-10T03:21:17.059Z,7.98
2017-03-10T03:22:12.582Z,7.93
2017-03-10T03:23:16.877Z,7.99
2017-03-10T03:24:16.723Z,8.02
2017-03-10T03:25:15.797Z,8.18
2017-03-10T03:26:16.791Z,8.07
2017-03-10T03:27:23.465Z,7.99
2017-03-10T03:28:16.886Z,8.02
2017-03-10T03:29:21.742Z,8.20
2017-03-10T03:30:24.040Z,8.18
2017-03-10T03:31:23.170Z,8.12
2017-03-10T03:32:24.303Z,8.09
2017-03-10T03:33:27.960Z,8.02
2017-03-10T03:34:16.958Z,7.90
2017-03-10T03:35:20.317Z,7.94
2017-03-10T03:36:11.517Z,8.07
2017-03-10T03:37:23.430Z,7.88
2017-03-10T03:38:17.233Z,7.81
2017-03-10T03:39:14.149Z,7.98
2017-03-10T03:40:17.408Z,8.03
2017-03-10T03:41:23.473Z,7.98
2017-03-10T03:42:11.531Z,7.97
2017-03-10T03:43:15.219Z,7.74
2017-03-10T03:44:17.231Z,7.84
2017-03-10T03:45:23.141Z,7.85
2017-03-10T03:46:12.917Z,7.84
2017-03-10T03:47:23.532Z,7.88
2017-03-10T03:48:17.627Z,7.84
2017-03-10T03:49:11.853Z,7.93
2017-03-10T03:50:11.839Z,7.72
2017-03-10T03:51:15.116Z,7.77
2017-03-10T03:52:24.332Z,7.80
2017-03-10T03:53:27.996Z,7.59
2017-03-10T03:54:14.030Z,7.74
2017-03-10T03:55:17.246Z,7.82
2017-03-10T03:56:23.338Z,7.82
2017-03-10T03:57:13.434Z,7.99
2017-03-10T03:58:19.813Z,7.90
2017-03-10T03:59:17.070Z,7.80
2017-03-10T04:00:21.713Z,7.71
2017-03-10T04:01:23.867Z,7.79
2017-03-10T04:02:24.072Z,7.95
2017-03-10T04:03:23.731Z,7.88
2017-03-10T04:04:21.834Z,7.64
2017-03-10T04:05:22.973Z,7.75
2017-03-10T04:06:15.629Z,7.82
2017-03-10T04:07:16.726Z,7.84
2017-03-10T04:08:21.926Z,7.71
2017-03-10T04:09:17.572Z,7.64
2017-03-10T04:10:23.862Z,7.57
2017-03-10T04:11:24.557Z,7.76
2017-03-10T04:12:16.819Z,7.70
2017-03-10T04:13:16.871Z,7.75
2017-03-10T04:14:16.932Z,7.64
2017-03-10T04:15:22.274Z,7.57
2017-03-10T04:16:21.726Z,7.65
2017-03-10T04:17:22.716Z,7.69
2017-03-10T04:18:16.850Z,7.94
2017-03-10T04:19:21.942Z,7.73
2017-03-10T04:20:17.111Z,7.81
2017-03-10T04:21:16.275Z,7.85
2017-03-10T04:22:23.760Z,7.85
2017-03-10T04:23:23.008Z,7.86
2017-03-10T04:24:24.074Z,7.83
2017-03-10T04:26:13.358Z,7.72
2017-03-10T04:27:28.628Z,7.83
2017-03-10T04:28:16.787Z,7.89
2017-03-10T04:29:16.534Z,7.83
2017-03-10T04:30:16.705Z,7.77
2017-03-10T04:31:17.033Z,7.85
2017-03-10T04:32:22.977Z,7.74
2017-03-10T04:33:17.147Z,7.77
2017-03-10T04:34:15.810Z,7.63
2017-03-10T04:35:17.609Z,7.76
2017-03-10T04:36:19.955Z,7.81
2017-03-10T04:37:17.377Z,7.63
2017-03-10T04:38:23.263Z,7.77
2017-03-10T04:39:17.710Z,7.85
2017-03-10T04:40:23.516Z,7.87
2017-03-10T04:41:12.595Z,7.86
2017-03-10T04:42:24.333Z,7.71
2017-03-10T04:43:23.252Z,7.84
2017-03-10T04:44:28.267Z,7.79
2017-03-10T04:45:23.515Z,7.74
2017-03-10T04:46:16.767Z,7.79
2017-03-10T04:47:15.101Z,7.77
2017-03-10T04:48:23.794Z,7.84
2017-03-10T04:49:21.957Z,7.68
2017-03-10T04:50:28.661Z,7.74
2017-03-10T04:51:23.831Z,7.92
2017-03-10T04:52:24.138Z,7.94
2017-03-10T04:53:23.214Z,7.92
2017-03-10T04:54:16.062Z,7.95
2017-03-10T04:55:21.845Z,7.93
2017-03-10T04:56:15.811Z,7.93
2017-03-10T04:57:22.637Z,7.87
2017-03-10T04:58:23.768Z,7.72
2017-03-10T04:59:16.825Z,7.68
2017-03-10T05:00:16.630Z,7.71
2017-03-10T05:01:13.033Z,7.83
2017-03-10T05:02:15.633Z,7.70
2017-03-10T05:03:23.348Z,7.59
2017-03-10T05:04:23.498Z,7.56
2017-03-10T05:05:16.634Z,7.49
2017-03-10T05:06:23.362Z,7.62
2017-03-10T05:07:24.097Z,7.72
2017-03-10T05:08:23.755Z,7.68
2017-03-10T05:09:29.610Z,7.62
2017-03-10T05:10:16.755Z,7.63
2017-03-10T05:11:16.600Z,7.68
2017-03-10T05:12:16.824Z,7.54
2017-03-10T05:13:17.038Z,7.67
2017-03-10T05:14:15.210Z,7.58
2017-03-10T05:15:23.624Z,7.51
2017-03-10T05:16:21.236Z,7.61
2017-03-10T05:17:17.432Z,7.60
2017-03-10T05:18:33.027Z,7.46
2017-03-10T05:19:23.026Z,7.60
2017-03-10T05:20:17.194Z,7.39
2017-03-10T05:21:13.867Z,7.36
2017-03-10T05:22:15.349Z,7.51
2017-03-10T05:23:30.337Z,7.52
2017-03-10T05:24:16.798Z,7.58
2017-03-10T05:25:23.548Z,7.56
2017-03-10T05:26:23.334Z,7.48
2017-03-10T05:27:23.263Z,7.37
2017-03-10T05:28:19.903Z,7.52
2017-03-10T05:29:13.800Z,7.31
2017-03-10T05:30:22.050Z,7.37
2017-03-10T05:31:13.108Z,7.37
2017-03-10T05:32:23.254Z,7.47
2017-03-10T05:33:23.494Z,7.48
2017-03-10T05:34:16.617Z,7.51
2017-03-10T05:35:17.011Z,7.42
2017-03-10T05:36:23.216Z,7.42
2017-03-10T05:37:17.466Z,7.15
2017-03-10T05:38:28.216Z,7.09
2017-03-10T05:39:28.306Z,7.23
2017-03-10T05:40:23.441Z,7.17
2017-03-10T05:41:16.623Z,7.12
2017-03-10T05:42:23.905Z,7.19
2017-03-10T05:43:12.357Z,7.07
2017-03-10T05:44:23.637Z,6.84
2017-03-10T05:45:28.435Z,6.89
2017-03-10T05:46:24.336Z,6.98
2017-03-10T05:47:28.524Z,6.94
2017-03-10T05:48:23.707Z,7.12
2017-03-10T05:49:16.997Z,7.01
2017-03-10T05:50:21.089Z,7.13
2017-03-10T05:51:23.314Z,7.14
2017-03-10T05:52:14.308Z,7.11
2017-03-10T05:53:23.008Z,7.08
2017-03-10T05:54:25.328Z,7.05
2017-03-10T05:55:15.283Z,7.00
2017-03-10T05:56:13.312Z,7.07
2017-03-10T05:57:15.915Z,7.04
2017-03-10T05:58:17.104Z,6.93
2017-03-10T05:59:23.880Z,6.81
2017-03-10T06:00:12.443Z,7.00
2017-03-10T06:01:23.276Z,6.96
2017-03-10T06:02:22.980Z,6.89
2017-03-10T06:03:25.957Z,6.92
2017-03-10T06:04:23.609Z,6.98
2017-03-10T06:05:16.642Z,6.84
2017-03-10T06:06:23.740Z,6.90
2017-03-10T06:07:22.629Z,6.85
2017-03-10T06:08:12.396Z,6.93
2017-03-10T06:09:23.526Z,7.05
2017-03-10T06:10:15.453Z,6.85
2017-03-10T06:11:24.097Z,7.02
2017-03-10T06:12:12.092Z,7.04
2017-03-10T06:13:23.551Z,7.17
2017-03-10T06:14:16.018Z,7.14
2017-03-10T06:15:23.885Z,7.17
2017-03-10T06:16:14.075Z,7.17
2017-03-10T06:17:13.383Z,7.29
2017-03-10T06:18:14.525Z,7.18
2017-03-10T06:19:11.825Z,7.09
2017-03-10T06:20:14.289Z,7.22
2017-03-10T06:21:12.493Z,7.17
2017-03-10T06:22:23.674Z,6.99
2017-03-10T06:23:26.291Z,7.01
2017-03-10T06:24:28.426Z,7.12
2017-03-10T06:25:13.418Z,7.29
2017-03-10T06:26:12.244Z,7.03
2017-03-10T06:27:22.976Z,7.16
2017-03-10T06:28:12.372Z,7.12
2017-03-10T06:29:22.688Z,7.05
2017-03-10T06:30:23.716Z,7.18
2017-03-10T06:31:26.687Z,7.28
2017-03-10T06:32:17.548Z,7.02
2017-03-10T06:33:12.016Z,7.09
2017-03-10T06:34:11.647Z,6.92
2017-03-10T06:35:23.952Z,6.98
2017-03-10T06:36:15.653Z,7.20
2017-03-10T06:37:17.047Z,7.30
2017-03-10T06:38:13.174Z,7.20
2017-03-10T06:39:23.663Z,7.03
2017-03-10T06:40:14.735Z,7.13
2017-03-10T06:41:16.657Z,7.18
2017-03-10T06:42:17.028Z,7.08
2017-03-10T06:43:13.701Z,7.14
2017-03-10T06:44:23.554Z,7.14
2017-03-10T06:45:13.364Z,7.25
2017-03-10T06:46:23.223Z,7.44
2017-03-10T06:47:23.649Z,7.53
2017-03-10T06:48:14.671Z,7.50
2017-03-10T06:49:24.251Z,7.21
2017-03-10T06:50:23.192Z,7.27
2017-03-10T06:51:16.688Z,7.38
2017-03-10T06:52:23.246Z,7.44
2017-03-10T06:53:17.000Z,7.30
2017-03-10T06:54:23.720Z,7.20
2017-03-10T06:55:16.974Z,7.35
2017-03-10T06:56:17.601Z,7.22
2017-03-10T06:57:17.226Z,6.93
2017-03-10T06:58:17.164Z,6.99
2017-03-10T06:59:26.245Z,7.28
2017-03-10T07:00:23.712Z,7.24
2017-03-10T07:01:14.332Z,7.26
2017-03-10T07:02:23.732Z,7.47
2017-03-10T07:03:23.743Z,7.54
2017-03-10T07:05:12.020Z,7.37
2017-03-10T07:06:13.080Z,7.55
2017-03-10T07:07:14.910Z,7.44
2017-03-10T07:08:16.145Z,7.34
2017-03-10T07:09:26.414Z,7.56
2017-03-10T07:10:23.807Z,7.51
2017-03-10T07:11:23.412Z,7.55
2017-03-10T07:12:14.987Z,7.39
2017-03-10T07:13:22.234Z,7.41
2017-03-10T07:14:23.381Z,7.59
2017-03-10T07:15:23.547Z,7.48
2017-03-10T07:16:21.554Z,7.29
2017-03-10T07:17:16.738Z,7.50
2017-03-10T07:18:22.197Z,7.67
2017-03-10T07:19:24.598Z,7.67
2017-03-10T07:20:24.426Z,7.66
2017-03-10T07:21:23.188Z,7.65
2017-03-10T07:22:23.377Z,7.50
2017-03-10T07:23:16.889Z,7.58
2017-03-10T07:24:23.123Z,7.56
2017-03-10T07:25:17.248Z,7.67
2017-03-10T07:26:13.562Z,7.66
2017-03-10T07:27:17.067Z,7.69
2017-03-10T07:28:13.637Z,7.86
2017-03-10T07:29:16.739Z,7.66
2017-03-10T07:30:12.755Z,7.79
2017-03-10T07:31:12.105Z,7.68
2017-03-10T07:32:20.620Z,7.65
2017-03-10T07:33:17.268Z,7.81
2017-03-10T07:34:20.259Z,7.92
2017-03-10T07:35:12.108Z,8.04
2017-03-10T07:36:21.848Z,8.02
2017-03-10T07:37:17.006Z,7.83
2017-03-10T07:38:17.278Z,7.71
2017-03-10T07:39:17.702Z,7.69
2017-03-10T07:40:16.863Z,7.82
2017-03-10T07:41:26.710Z,7.82
2017-03-10T07:42:16.826Z,7.77
2017-03-10T07:43:23.507Z,7.67
2017-03-10T07:44:23.611Z,7.78
2017-03-10T07:45:22.141Z,7.93
2017-03-10T07:46:16.784Z,7.88
2017-03-10T07:47:16.227Z,7.77
2017-03-10T07:48:21.681Z,7.79
2017-03-10T07:49:12.964Z,7.87
2017-03-10T07:50:16.720Z,7.89
2017-03-10T07:51:23.459Z,8.12
2017-03-10T07:52:17.147Z,7.99
2017-03-10T07:53:23.937Z,8.05
2017-03-10T07:54:16.485Z,7.92
2017-03-10T07:55:24.200Z,7.70
2017-03-10T07:56:13.716Z,7.69
2017-03-10T07:57:17.468Z,7.70
2017-03-10T07:58:12.251Z,7.52
2017-03-10T07:59:14.799Z,7.41
2017-03-10T08:00:17.404Z,7.28
2017-03-10T08:01:15.633Z,7.28
2017-03-10T08:02:23.421Z,7.39
2017-03-10T08:03:15.094Z,7.65
2017-03-10T08:04:23.978Z,7.71
2017-03-10T08:05:15.777Z,7.56
2017-03-10T08:06:16.945Z,7.60
2017-03-10T08:07:15.289Z,7.50
2017-03-10T08:08:23.297Z,7.74
2017-03-10T08:09:17.836Z,7.69
2017-03-10T08:10:24.188Z,7.90
2017-03-10T08:11:23.297Z,7.75
2017-03-10T08:12:23.422Z,8.00
2017-03-10T08:13:16.823Z,8.14
2017-03-10T08:14:16.818Z,8.15
2017-03-10T08:15:23.230Z,8.13
2017-03-10T08:16:23.719Z,8.09
2017-03-10T08:17:17.907Z,7.80
2017-03-10T08:18:23.023Z,7.91
2017-03-10T08:19:23.497Z,8.13
2017-03-10T08:20:26.641Z,8.06
2017-03-10T08:21:20.993Z,8.36
2017-03-10T08:22:23.795Z,8.02
2017-03-10T08:23:12.958Z,8.01
2017-03-10T08:24:14.053Z,7.98
2017-03-10T08:25:23.859Z,7.85
2017-03-10T08:26:23.424Z,7.87
2017-03-10T08:27:23.375Z,7.96
2017-03-10T08:28:15.133Z,8.00
2017-03-10T08:29:28.373Z,7.98
2017-03-10T08:30:22.529Z,7.99
2017-03-10T08:31:28.573Z,7.76
2017-03-10T08:32:15.264Z,7.91
2017-03-10T08:33:17.597Z,7.90
2017-03-10T08:34:18.169Z,8.02
2017-03-10T08:35:24.088Z,8.17
2017-03-10T08:36:22.156Z,8.08
2017-03-10T08:37:24.009Z,7.98
2017-03-10T08:38:17.208Z,7.97
2017-03-10T08:39:23.483Z,7.92
2017-03-10T08:40:28.484Z,7.99
2017-03-10T08:41:25.733Z,7.98
2017-03-10T08:42:23.400Z,7.93
2017-03-10T08:43:22.151Z,7.73
2017-03-10T08:44:23.341Z,7.67
2017-03-10T08:45:24.572Z,7.95
2017-03-10T08:46:23.600Z,7.90
2017-03-10T08:47:23.330Z,7.95
2017-03-10T08:48:23.490Z,7.88
2017-03-10T08:49:23.171Z,8.05
2017-03-10T08:50:23.649Z,7.93
2017-03-10T08:51:24.253Z,8.00
2017-03-10T08:52:23.897Z,8.08
2017-03-10T08:53:18.077Z,8.03
2017-03-10T08:54:24.045Z,8.04
2017-03-10T08:55:14.068Z,8.08
2017-03-10T08:56:17.895Z,7.75
2017-03-10T08:57:16.662Z,8.09
2017-03-10T08:58:16.810Z,8.14
2017-03-10T08:59:23.725Z,8.03
2017-03-10T09:00:16.748Z,8.11
2017-03-10T09:01:23.033Z,8.11
2017-03-10T09:02:23.332Z,7.98
2017-03-10T09:03:21.142Z,8.12
2017-03-10T09:04:15.860Z,7.88
2017-03-10T09:05:17.092Z,8.19
2017-03-10T09:06:24.385Z,8.22
2017-03-10T09:07:14.814Z,8.24
2017-03-10T09:08:17.319Z,8.19
2017-03-10T09:09:15.843Z,8.21
2017-03-10T09:10:17.540Z,8.15
2017-03-10T09:11:24.144Z,8.38
2017-03-10T09:12:13.744Z,8.39
2017-03-10T09:13:16.832Z,8.41
2017-03-10T09:14:16.906Z,8.22
2017-03-10T09:15:24.095Z,8.29
2017-03-10T09:16:14.010Z,8.19
2017-03-10T09:17:16.840Z,8.03
2017-03-10T09:18:23.422Z,8.23
2017-03-10T09:19:23.071Z,8.45
2017-03-10T09:20:21.746Z,8.61
2017-03-10T09:21:23.361Z,8.80
2017-03-10T09:22:17.082Z,8.67
2017-03-10T09:23:13.311Z,8.72
2017-03-10T09:24:14.710Z,8.86
2017-03-10T09:25:13.383Z,8.88
2017-03-10T09:26:24.014Z,8.52
2017-03-10T09:27:21.025Z,8.54
2017-03-10T09:28:16.197Z,8.54
2017-03-10T09:29:17.298Z,8.08
2017-03-10T09:30:23.145Z,8.39
2017-03-10T09:31:24.343Z,8.26
2017-03-10T09:32:17.519Z,8.31
2017-03-10T09:33:16.644Z,8.41
2017-03-10T09:34:17.246Z,8.32
2017-03-10T09:35:23.485Z,8.07
2017-03-10T09:36:21.590Z,8.15
2017-03-10T09:37:23.843Z,8.26
2017-03-10T09:38:17.358Z,8.28
2017-03-10T09:39:17.853Z,8.18
2017-03-10T09:40:17.172Z,7.91
2017-03-10T09:41:23.422Z,7.86
2017-03-10T09:42:14.547Z,8.17
2017-03-10T09:43:23.402Z,8.30
2017-03-10T09:44:17.597Z,8.41
2017-03-10T09:45:17.454Z,8.48
2017-03-10T09:46:16.853Z,8.62
2017-03-10T09:47:23.830Z,8.74
2017-03-10T09:48:14.862Z,8.91
2017-03-10T09:49:14.561Z,9.13
2017-03-10T09:50:23.697Z,8.97
2017-03-10T09:51:16.957Z,8.69
2017-03-10T09:52:22.504Z,8.84
2017-03-10T09:53:17.241Z,8.78
2017-03-10T09:54:17.557Z,8.71
2017-03-10T09:55:24.228Z,8.55
2017-03-10T09:56:28.357Z,8.38
2017-03-10T09:57:21.625Z,8.38
2017-03-10T09:58:16.839Z,8.53
2017-03-10T09:59:24.560Z,8.58
2017-03-10T10:00:17.659Z,8.38
2017-03-10T10:01:14.965Z,8.33
2017-03-10T10:02:15.916Z,8.55
2017-03-10T10:03:16.768Z,8.50
2017-03-10T10:04:17.343Z,8.67
2017-03-10T10:05:17.502Z,8.91
2017-03-10T10:06:14.840Z,8.77
2017-03-10T10:07:14.388Z,9.07
2017-03-10T10:08:17.513Z,9.52
2017-03-10T10:09:24.524Z,9.47
2017-03-10T10:10:23.514Z,9.04
2017-03-10T10:11:14.862Z,9.00
2017-03-10T10:12:17.581Z,8.94
2017-03-10T10:13:21.428Z,8.99
2017-03-10T10:14:23.706Z,8.68
2017-03-10T10:15:21.732Z,8.94
2017-03-10T10:16:21.386Z,8.78
2017-03-10T10:17:17.558Z,8.78
2017-03-10T10:18:23.663Z,8.83
2017-03-10T10:19:23.574Z,8.74
2017-03-10T10:20:15.001Z,9.00
2017-03-10T10:21:23.625Z,8.97
2017-03-10T10:22:24.062Z,8.72
2017-03-10T10:23:23.299Z,8.73
2017-03-10T10:24:16.957Z,9.05
2017-03-10T10:25:20.925Z,8.98
2017-03-10T10:26:17.055Z,9.01
2017-03-10T10:27:24.028Z,9.20
2017-03-10T10:28:16.061Z,9.53
2017-03-10T10:29:24.424Z,9.40
2017-03-10T10:30:23.071Z,9.31
2017-03-10T10:31:15.973Z,9.11
2017-03-10T10:32:22.597Z,8.95
2017-03-10T10:33:24.221Z,9.01
2017-03-10T10:34:17.528Z,8.90
2017-03-10T10:35:14.055Z,8.99
2017-03-10T10:36:16.710Z,9.03
2017-03-10T10:37:18.065Z,8.87
2017-03-10T10:38:17.294Z,8.86
2017-03-10T10:39:24.514Z,8.93
2017-03-10T10:40:22.608Z,8.81
2017-03-10T10:41:14.214Z,8.92
2017-03-10T10:42:15.199Z,8.89
2017-03-10T10:43:17.067Z,9.06
2017-03-10T10:44:26.966Z,9.22
2017-03-10T10:45:23.720Z,9.21
2017-03-10T10:46:23.862Z,9.06
2017-03-10T10:47:17.130Z,8.95
2017-03-10T10:48:21.853Z,8.89
2017-03-10T10:49:23.728Z,8.76
2017-03-10T10:50:28.999Z,8.68
2017-03-10T10:51:14.277Z,8.41
2017-03-10T10:52:13.292Z,8.48
2017-03-10T10:53:17.069Z,8.78
2017-03-10T10:54:16.702Z,9.24
2017-03-10T10:55:23.487Z,8.78
2017-03-10T10:56:11.819Z,9.06
2017-03-10T10:57:16.615Z,9.29
2017-03-10T10:58:23.651Z,9.39
2017-03-10T10:59:12.953Z,9.43
2017-03-10T11:00:16.938Z,9.23
2017-03-10T11:01:28.262Z,9.29
2017-03-10T11:02:16.599Z,9.23
2017-03-10T11:03:13.052Z,9.20
2017-03-10T11:04:16.807Z,9.36
2017-03-10T11:05:17.197Z,9.31
2017-03-10T11:06:17.207Z,9.37
2017-03-10T11:07:23.711Z,9.43
2017-03-10T11:08:28.676Z,9.60
2017-03-10T11:09:20.708Z,9.46
2017-03-10T11:10:13.065Z,9.31
2017-03-10T11:11:12.234Z,9.15
2017-03-10T11:12:23.392Z,9.18
2017-03-10T11:13:14.928Z,9.23
2017-03-10T11:14:23.731Z,9.08
2017-03-10T11:15:15.822Z,9.25
2017-03-10T11:16:13.352Z,9.40
2017-03-10T11:17:23.632Z,9.34
2017-03-10T11:18:23.538Z,9.20
2017-03-10T11:19:24.231Z,9.18
2017-03-10T11:20:24.427Z,9.27
2017-03-10T11:21:14.947Z,9.40
2017-03-10T11:22:12.123Z,9.71
2017-03-10T11:23:17.306Z,9.33
2017-03-10T11:24:13.256Z,9.13
2017-03-10T11:25:24.558Z,9.23
2017-03-10T11:26:23.832Z,9.25
2017-03-10T11:27:23.507Z,9.14
2017-03-10T11:28:21.382Z,9.49
2017-03-10T11:29:16.070Z,9.65
2017-03-10T11:30:23.731Z,9.87
2017-03-10T11:31:16.850Z,9.68
2017-03-10T11:32:17.196Z,9.64
2017-03-10T11:33:15.575Z,9.84
2017-03-10T11:34:16.851Z,9.68
2017-03-10T11:35:16.667Z,9.73
2017-03-10T11:36:20.532Z,9.78
2017-03-10T11:37:16.785Z,9.33
2017-03-10T11:38:24.569Z,9.38
2017-03-10T11:39:23.419Z,9.43
2017-03-10T11:40:29.109Z,9.75
2017-03-10T11:41:21.782Z,9.88
2017-03-10T11:42:24.146Z,9.77
2017-03-10T11:43:17.352Z,9.75
2017-03-10T11:44:22.416Z,9.82
2017-03-10T11:45:24.560Z,9.74
2017-03-10T11:46:16.978Z,9.59
2017-03-10T11:47:21.323Z,9.70
2017-03-10T11:48:23.508Z,9.62
2017-03-10T11:49:22.423Z,9.63
2017-03-10T11:50:14.444Z,9.49
2017-03-10T11:51:16.868Z,9.13
2017-03-10T11:52:16.888Z,9.10
2017-03-10T11:53:23.588Z,8.77
2017-03-10T11:54:17.377Z,9.02
2017-03-10T11:55:23.732Z,9.19
2017-03-10T11:56:27.271Z,9.17
2017-03-10T11:57:22.130Z,9.30
2017-03-10T11:58:17.275Z,9.39
2017-03-10T11:59:16.162Z,9.72
2017-03-10T12:00:17.548Z,10.06
2017-03-10T12:01:28.481Z,10.33
2017-03-10T12:02:24.441Z,10.02
2017-03-10T12:03:24.645Z,10.21
2017-03-10T12:04:27.412Z,10.17
2017-03-10T12:05:16.860Z,10.11
2017-03-10T12:06:16.847Z,9.84
2017-03-10T12:07:16.589Z,9.88
2017-03-10T12:08:20.193Z,9.87
2017-03-10T12:09:24.321Z,9.80
2017-03-10T12:10:23.621Z,9.74
2017-03-10T12:11:17.034Z,9.70
2017-03-10T12:12:22.534Z,9.74
2017-03-10T12:13:26.373Z,9.53
2017-03-10T12:14:17.150Z,9.12
2017-03-10T12:15:12.910Z,9.43
2017-03-10T12:16:14.842Z,9.37
2017-03-10T12:17:23.760Z,9.28
2017-03-10T12:18:16.863Z,9.17
2017-03-10T12:19:24.442Z,9.17
2017-03-10T12:20:15.774Z,9.08
2017-03-10T12:21:24.440Z,8.75
2017-03-10T12:22:17.588Z,9.13
2017-03-10T12:23:17.081Z,9.24
2017-03-10T12:24:17.019Z,9.01
2017-03-10T12:25:17.789Z,8.96
2017-03-10T12:26:22.064Z,9.09
2017-03-10T12:27:22.478Z,9.13
2017-03-10T12:28:17.100Z,9.25
2017-03-10T12:29:15.818Z,9.31
2017-03-10T12:30:16.604Z,9.42
2017-03-10T12:31:16.797Z,9.49
2017-03-10T12:32:23.422Z,9.77
2017-03-10T12:33:23.619Z,9.80
2017-03-10T12:34:22.482Z,9.48
2017-03-10T12:35:16.756Z,9.41
2017-03-10T12:36:16.665Z,9.46
2017-03-10T12:37:16.655Z,9.18
2017-03-10T12:38:16.842Z,9.24
2017-03-10T12:39:17.357Z,9.35
2017-03-10T12:40:17.217Z,9.43
2017-03-10T12:41:17.397Z,9.75
2017-03-10T12:42:16.784Z,9.88
2017-03-10T12:43:15.133Z,9.82
2017-03-10T12:44:23.188Z,10.10
2017-03-10T12:45:14.759Z,10.11
2017-03-10T12:46:17.651Z,10.21
2017-03-10T12:47:21.732Z,9.91
2017-03-10T12:48:23.859Z,9.70
2017-03-10T12:49:22.099Z,9.76
2017-03-10T12:50:14.482Z,9.54
2017-03-10T12:51:28.602Z,9.59
2017-03-10T12:52:16.976Z,9.65
2017-03-10T12:53:24.272Z,10.00
2017-03-10T12:54:24.425Z,9.97
2017-03-10T12:55:17.564Z,9.51
2017-03-10T12:56:24.399Z,9.43
2017-03-10T12:57:23.432Z,9.41
2017-03-10T12:58:16.539Z,9.43
2017-03-10T12:59:17.206Z,9.33
2017-03-10T13:00:21.513Z,9.40
2017-03-10T13:01:16.782Z,9.36
2017-03-10T13:02:22.471Z,9.50
2017-03-10T13:03:16.869Z,9.62
2017-03-10T13:04:16.267Z,9.74
2017-03-10T13:05:16.812Z,9.79
2017-03-10T13:06:16.396Z,9.90
2017-03-10T13:07:16.762Z,10.08
2017-03-10T13:08:23.104Z,9.92
2017-03-10T13:09:23.465Z,10.01
2017-03-10T13:10:16.761Z,9.98
2017-03-10T13:11:25.095Z,9.78
2017-03-10T13:12:16.490Z,9.68
2017-03-10T13:13:17.511Z,9.86
2017-03-10T13:14:21.998Z,10.01
2017-03-10T13:15:23.671Z,9.90
2017-03-10T13:16:10.818Z,9.86
2017-03-10T13:17:09.939Z,9.87
2017-03-10T13:18:12.600Z,9.98
2017-03-10T13:19:21.904Z,10.01
2017-03-10T13:20:17.566Z,10.02
2017-03-10T13:21:15.516Z,10.32
2017-03-10T13:22:17.113Z,10.59
2017-03-10T13:23:23.411Z,10.88
2017-03-10T13:24:24.498Z,10.88
2017-03-10T13:25:16.756Z,10.76
2017-03-10T13:26:20.424Z,10.72
2017-03-10T13:27:24.175Z,11.23
2017-03-10T13:28:17.593Z,11.29
2017-03-10T13:29:23.814Z,11.46
2017-03-10T13:30:15.245Z,11.20
2017-03-10T13:31:17.588Z,10.58
2017-03-10T13:32:23.455Z,10.40
2017-03-10T13:33:27.543Z,9.92
2017-03-10T13:34:16.584Z,9.90
2017-03-10T13:35:16.580Z,9.73
2017-03-10T13:36:16.601Z,9.80
2017-03-10T13:37:24.211Z,9.74
2017-03-10T13:38:23.955Z,9.89
2017-03-10T13:39:16.946Z,9.80
2017-03-10T13:40:17.189Z,9.95
2017-03-10T13:41:22.560Z,10.03
2017-03-10T13:42:17.618Z,10.13
2017-03-10T13:43:16.864Z,10.56